createdAt,value
2023-01-13T00:00:34.566Z,10.09
2023-01-13T00:02:56.499Z,10.08
2023-01-13T00:04:59.503Z,10.07
2023-01-13T00:07:02.940Z,10.06
2023-01-13T00:09:05.810Z,10.04
2023-01-13T00:11:10.237Z,10.02
2023-01-13T00:13:13.119Z,10.00
2023-01-13T00:15:16.632Z,9.98
2023-01-13T00:17:19.427Z,10.00
2023-01-13T00:19:22.489Z,9.99
2023-01-13T00:21:25.847Z,9.99
2023-01-13T00:23:30.453Z,10.00
2023-01-13T00:25:33.279Z,10.01
2023-01-13T00:27:36.371Z,10.00
2023-01-13T00:29:39.922Z,9.99
2023-01-13T00:31:42.720Z,9.97
2023-01-13T00:33:46.182Z,9.95
2023-01-13T00:35:59.755Z,9.93
2023-01-13T00:38:02.921Z,9.91
2023-01-13T00:40:06.495Z,9.93
2023-01-13T00:42:27.710Z,9.93
2023-01-13T00:44:30.571Z,9.92
2023-01-13T00:46:33.475Z,9.91
2023-01-13T00:48:38.674Z,9.93
2023-01-13T00:50:42.303Z,9.96
2023-01-13T00:52:46.258Z,9.95
2023-01-13T00:54:49.404Z,9.95
2023-01-13T00:56:52.503Z,9.94
2023-01-13T00:58:57.281Z,9.93
2023-01-13T01:01:07.068Z,9.91
2023-01-13T01:03:12.698Z,9.92
2023-01-13T01:05:16.087Z,9.93
2023-01-13T01:07:18.955Z,9.94
2023-01-13T01:09:21.950Z,9.93
2023-01-13T01:11:28.207Z,9.93
2023-01-13T01:13:31.301Z,9.92
2023-01-13T01:15:34.163Z,9.93
2023-01-13T01:17:37.259Z,9.94
2023-01-13T01:19:40.079Z,9.93
2023-01-13T01:21:43.154Z,9.91
2023-01-13T01:23:46.023Z,9.90
2023-01-13T01:25:49.034Z,9.89
2023-01-13T01:27:51.970Z,9.88
2023-01-13T01:29:54.997Z,9.91
2023-01-13T01:32:02.093Z,9.95
2023-01-13T01:34:05.087Z,9.96
2023-01-13T01:36:09.053Z,9.97
2023-01-13T01:38:11.831Z,9.99
2023-01-13T01:40:14.720Z,9.98
2023-01-13T01:42:37.695Z,9.97
2023-01-13T01:44:44.322Z,9.95
2023-01-13T01:46:47.150Z,9.93
2023-01-13T01:48:50.051Z,9.92
2023-01-13T01:50:53.425Z,9.93
2023-01-13T01:53:02.966Z,9.92
2023-01-13T01:55:22.709Z,9.92
2023-01-13T01:57:58.999Z,9.95
2023-01-13T02:00:02.686Z,9.97
2023-01-13T02:02:05.994Z,10.00
2023-01-13T02:04:20.683Z,10.01
2023-01-13T02:06:24.101Z,10.04
2023-01-13T02:08:27.532Z,10.06
2023-01-13T02:10:31.284Z,10.10
2023-01-13T02:12:34.758Z,10.09
2023-01-13T02:14:39.048Z,10.08
2023-01-13T02:16:54.424Z,10.05
2023-01-13T02:19:07.136Z,10.04
2023-01-13T02:21:53.070Z,10.01
2023-01-13T02:24:33.920Z,9.99
2023-01-13T02:26:55.843Z,10.03
2023-01-13T02:29:27.685Z,10.04
2023-01-13T02:31:43.617Z,10.04
2023-01-13T02:34:14.878Z,10.02
2023-01-13T02:36:34.896Z,9.99
2023-01-13T02:38:46.889Z,9.98
2023-01-13T02:41:30.728Z,9.95
2023-01-13T02:43:57.476Z,9.94
2023-01-13T02:46:08.866Z,9.91
2023-01-13T02:48:15.621Z,9.90
2023-01-13T02:50:24.142Z,9.92
2023-01-13T02:52:45.071Z,9.93
2023-01-13T02:54:56.005Z,9.92
2023-01-13T02:57:01.392Z,9.94
2023-01-13T02:59:05.403Z,9.95
2023-01-13T03:01:08.184Z,9.96
2023-01-13T03:03:10.911Z,9.97
2023-01-13T03:05:17.173Z,9.96
2023-01-13T03:07:39.233Z,9.98
2023-01-13T03:09:53.900Z,9.99
2023-01-13T03:12:10.568Z,9.98
2023-01-13T03:14:13.144Z,9.99
2023-01-13T03:16:40.813Z,10.02
2023-01-13T03:18:49.123Z,10.01
2023-01-13T03:21:09.623Z,10.01
2023-01-13T03:23:12.252Z,10.03
2023-01-13T03:25:40.872Z,10.00
2023-01-13T03:27:55.633Z,9.95
2023-01-13T03:30:07.287Z,9.93
2023-01-13T03:32:16.318Z,9.90
2023-01-13T03:34:22.582Z,9.89
2023-01-13T03:36:28.252Z,9.88
2023-01-13T03:38:37.076Z,9.87
2023-01-13T03:40:45.557Z,9.85
2023-01-13T03:43:13.959Z,9.84
2023-01-13T03:45:19.967Z,9.83
2023-01-13T03:47:31.704Z,9.81
2023-01-13T03:49:46.261Z,9.79
2023-01-13T03:51:55.249Z,9.79
2023-01-13T03:54:05.107Z,9.79
2023-01-13T03:56:15.838Z,9.80
2023-01-13T03:58:23.689Z,9.81
2023-01-13T04:00:31.820Z,9.84
2023-01-13T04:02:59.765Z,9.86
2023-01-13T04:05:07.151Z,9.89
2023-01-13T04:07:14.120Z,9.88
2023-01-13T04:09:32.801Z,9.89
2023-01-13T04:11:42.751Z,9.90
2023-01-13T04:13:49.251Z,9.90
2023-01-13T04:15:52.559Z,9.90
2023-01-13T04:18:03.030Z,9.90
2023-01-13T04:20:06.814Z,9.93
2023-01-13T04:22:10.224Z,9.97
2023-01-13T04:24:13.352Z,9.99
2023-01-13T04:26:16.534Z,10.00
2023-01-13T04:28:20.576Z,9.99
2023-01-13T04:30:23.763Z,10.00
2023-01-13T04:32:27.618Z,10.01
2023-01-13T04:34:30.653Z,10.02
2023-01-13T04:36:33.443Z,10.02
2023-01-13T04:38:37.883Z,10.00
2023-01-13T04:40:42.008Z,9.97
2023-01-13T04:42:45.524Z,9.97
2023-01-13T04:44:48.557Z,9.97
2023-01-13T04:46:52.573Z,9.96
2023-01-13T04:48:55.555Z,9.94
2023-01-13T04:50:58.504Z,9.91
2023-01-13T04:53:02.336Z,9.91
2023-01-13T04:55:05.928Z,9.90
2023-01-13T04:57:08.643Z,9.91
2023-01-13T04:59:12.571Z,9.94
2023-01-13T05:01:15.410Z,9.95
2023-01-13T05:03:19.275Z,9.96
2023-01-13T05:05:22.882Z,9.95
2023-01-13T05:07:27.818Z,9.94
2023-01-13T05:09:30.671Z,9.94
2023-01-13T05:11:52.844Z,9.95
2023-01-13T05:14:14.308Z,9.94
2023-01-13T05:16:36.141Z,9.92
2023-01-13T05:18:39.086Z,9.91
2023-01-13T05:20:41.623Z,9.94
2023-01-13T05:23:03.464Z,9.97
2023-01-13T05:25:24.699Z,9.98
2023-01-13T05:27:28.898Z,10.00
2023-01-13T05:29:31.828Z,10.01
2023-01-13T05:31:35.001Z,10.01
2023-01-13T05:33:37.917Z,10.00
2023-01-13T05:35:43.771Z,10.00
2023-01-13T05:37:47.877Z,9.99
2023-01-13T05:40:09.620Z,10.01
2023-01-13T05:42:30.968Z,10.03
2023-01-13T05:44:33.764Z,10.06
2023-01-13T05:46:36.669Z,10.06
2023-01-13T05:48:43.648Z,10.08
2023-01-13T05:50:47.628Z,10.08
2023-01-13T05:52:50.896Z,10.08
2023-01-13T05:54:53.637Z,10.06
2023-01-13T05:56:56.794Z,10.05
2023-01-13T05:58:59.448Z,10.05
2023-01-13T06:01:07.368Z,10.07
2023-01-13T06:03:11.134Z,10.12
2023-01-13T06:05:14.026Z,10.16
2023-01-13T06:07:16.562Z,10.18
2023-01-13T06:09:21.230Z,10.20
2023-01-13T06:11:24.441Z,10.23
2023-01-13T06:13:27.417Z,10.26
2023-01-13T06:15:30.254Z,10.28
2023-01-13T06:17:32.843Z,10.28
2023-01-13T06:19:35.894Z,10.27
2023-01-13T06:21:39.647Z,10.26
2023-01-13T06:23:42.340Z,10.24
2023-01-13T06:26:12.672Z,10.23
2023-01-13T06:28:15.851Z,10.24
2023-01-13T06:30:19.336Z,10.24
2023-01-13T06:32:28.894Z,10.27
2023-01-13T06:34:32.388Z,10.28
2023-01-13T06:36:39.793Z,10.28
2023-01-13T06:38:47.957Z,10.26
2023-01-13T06:40:51.012Z,10.24
2023-01-13T06:43:16.330Z,10.22
2023-01-13T06:45:19.817Z,10.21
2023-01-13T06:47:22.608Z,10.20
2023-01-13T06:49:25.640Z,10.19
2023-01-13T06:51:28.475Z,10.18
2023-01-13T06:53:31.507Z,10.22
2023-01-13T06:55:34.379Z,10.25
2023-01-13T06:57:56.527Z,10.27
2023-01-13T07:00:07.734Z,10.29
2023-01-13T07:02:11.607Z,10.33
2023-01-13T07:04:14.705Z,10.35
2023-01-13T07:06:17.735Z,10.36
2023-01-13T07:08:20.967Z,10.37
2023-01-13T07:10:23.589Z,10.37
2023-01-13T07:12:26.629Z,10.38
2023-01-13T07:14:48.069Z,10.36
2023-01-13T07:16:52.571Z,10.36
2023-01-13T07:18:55.143Z,10.38
2023-01-13T07:21:00.259Z,10.38
2023-01-13T07:23:03.205Z,10.40
2023-01-13T07:25:06.710Z,10.42
2023-01-13T07:27:09.388Z,10.43
2023-01-13T07:29:12.508Z,10.46
2023-01-13T07:31:23.331Z,10.48
2023-01-13T07:33:26.478Z,10.48
2023-01-13T07:35:29.216Z,10.50
2023-01-13T07:37:36.612Z,10.50
2023-01-13T07:39:39.400Z,10.49
2023-01-13T07:42:00.341Z,10.44
2023-01-13T07:44:06.563Z,10.36
2023-01-13T07:46:09.226Z,10.33
2023-01-13T07:48:13.490Z,10.32
2023-01-13T07:50:16.251Z,10.32
2023-01-13T07:52:18.959Z,10.32
2023-01-13T07:54:35.127Z,10.31
2023-01-13T07:56:42.478Z,10.29
2023-01-13T07:58:50.308Z,10.28
2023-01-13T08:00:54.860Z,10.27
2023-01-13T08:03:01.359Z,10.26
2023-01-13T08:05:04.758Z,10.23
2023-01-13T08:07:07.432Z,10.21
2023-01-13T08:09:10.239Z,10.17
2023-01-13T08:11:15.423Z,10.17
2023-01-13T08:13:22.466Z,10.17
2023-01-13T08:15:25.427Z,10.16
2023-01-13T08:17:28.462Z,10.12
2023-01-13T08:19:31.400Z,10.08
2023-01-13T08:21:34.225Z,10.05
2023-01-13T08:23:37.411Z,10.02
2023-01-13T08:25:40.105Z,9.91
2023-01-13T08:27:42.908Z,9.66
2023-01-13T08:29:45.840Z,9.45
2023-01-13T08:31:48.475Z,9.30
2023-01-13T08:33:51.084Z,9.23
2023-01-13T08:35:54.147Z,9.18
2023-01-13T08:38:00.015Z,9.10
2023-01-13T08:40:02.880Z,9.05
2023-01-13T08:42:05.786Z,9.02
2023-01-13T08:44:09.333Z,8.98
2023-01-13T08:46:12.370Z,8.87
2023-01-13T08:48:15.176Z,8.77
2023-01-13T08:50:22.575Z,8.73
2023-01-13T08:52:25.689Z,8.78
2023-01-13T08:54:28.532Z,8.83
2023-01-13T08:56:34.209Z,8.87
2023-01-13T08:58:37.859Z,8.90
2023-01-13T09:00:40.692Z,8.94
2023-01-13T09:02:43.579Z,8.97
2023-01-13T09:04:46.958Z,9.00
2023-01-13T09:06:50.576Z,9.01
2023-01-13T09:08:53.655Z,9.02
2023-01-13T09:11:00.061Z,9.01
2023-01-13T09:13:11.742Z,8.99
2023-01-13T09:15:18.582Z,8.96
2023-01-13T09:17:23.094Z,8.93
2023-01-13T09:19:27.084Z,8.93
2023-01-13T09:21:29.917Z,8.93
2023-01-13T09:23:32.550Z,8.96
2023-01-13T09:25:36.806Z,8.97
2023-01-13T09:27:39.518Z,8.97
2023-01-13T09:29:42.560Z,8.99
2023-01-13T09:31:46.605Z,9.02
2023-01-13T09:34:07.847Z,9.04
2023-01-13T09:36:10.746Z,9.07
2023-01-13T09:38:13.444Z,9.06
2023-01-13T09:40:19.321Z,9.07
2023-01-13T09:42:57.368Z,9.07
2023-01-13T09:45:12.611Z,9.03
2023-01-13T09:47:24.614Z,8.98
2023-01-13T09:49:39.592Z,8.98
2023-01-13T09:51:48.809Z,8.98
2023-01-13T09:53:56.765Z,8.99
2023-01-13T09:56:00.461Z,8.99
2023-01-13T09:58:13.209Z,9.02
2023-01-13T10:00:26.961Z,9.05
2023-01-13T10:03:03.791Z,9.06
2023-01-13T10:05:20.278Z,9.04
2023-01-13T10:07:25.821Z,9.02
2023-01-13T10:09:46.896Z,8.99
2023-01-13T10:12:09.558Z,8.96
2023-01-13T10:14:30.007Z,8.95
2023-01-13T10:16:48.096Z,9.00
2023-01-13T10:18:50.806Z,9.04
2023-01-13T10:21:11.082Z,9.06
2023-01-13T10:23:50.413Z,9.08
2023-01-13T10:26:24.195Z,9.09
2023-01-13T10:28:27.233Z,9.12
2023-01-13T10:30:40.264Z,9.14
2023-01-13T10:32:58.751Z,9.14
2023-01-13T10:35:02.360Z,9.12
2023-01-13T10:37:07.184Z,9.11
2023-01-13T10:39:17.153Z,9.13
2023-01-13T10:41:27.656Z,9.14
2023-01-13T10:43:31.299Z,9.16
2023-01-13T10:45:34.064Z,9.16
2023-01-13T10:47:37.408Z,9.19
2023-01-13T10:49:40.321Z,9.23
2023-01-13T10:51:44.644Z,9.27
2023-01-13T10:53:51.559Z,9.30
2023-01-13T10:56:03.996Z,9.31
2023-01-13T10:58:16.377Z,9.32
2023-01-13T11:00:31.605Z,9.30
2023-01-13T11:02:36.033Z,9.27
2023-01-13T11:04:44.102Z,9.26
2023-01-13T11:06:47.559Z,9.24
2023-01-13T11:08:52.694Z,9.24
2023-01-13T11:11:01.160Z,9.23
2023-01-13T11:13:14.587Z,9.24
2023-01-13T11:15:23.584Z,9.30
2023-01-13T11:17:40.891Z,9.36
2023-01-13T11:19:54.133Z,9.42
2023-01-13T11:22:12.734Z,9.46
2023-01-13T11:24:40.243Z,9.49
2023-01-13T11:26:58.087Z,9.47
2023-01-13T11:29:09.788Z,9.46
2023-01-13T11:31:23.236Z,9.44
2023-01-13T11:33:40.899Z,9.44
2023-01-13T11:36:08.610Z,9.43
2023-01-13T11:38:20.511Z,9.41
2023-01-13T11:40:35.013Z,9.39
2023-01-13T11:42:49.853Z,9.38
2023-01-13T11:45:32.677Z,9.39
2023-01-13T11:47:36.851Z,9.42
2023-01-13T11:49:39.822Z,9.44
2023-01-13T11:52:20.880Z,9.46
2023-01-13T11:54:38.876Z,9.48
2023-01-13T11:57:06.969Z,9.48
2023-01-13T11:59:26.808Z,9.47
2023-01-13T12:01:49.499Z,9.44
2023-01-13T12:04:04.214Z,9.40
2023-01-13T12:06:25.314Z,9.38
2023-01-13T12:08:36.953Z,9.40
2023-01-13T12:11:21.193Z,9.42
2023-01-13T12:13:27.873Z,9.45
2023-01-13T12:15:56.121Z,9.45
2023-01-13T12:18:20.935Z,9.45
2023-01-13T12:20:26.501Z,9.44
2023-01-13T12:22:35.335Z,9.38
2023-01-13T12:24:51.227Z,9.37
2023-01-13T12:27:05.877Z,9.37
2023-01-13T12:29:18.970Z,9.37
2023-01-13T12:31:22.855Z,9.36
2023-01-13T12:33:41.353Z,9.35
2023-01-13T12:36:20.813Z,9.35
2023-01-13T12:39:02.293Z,9.32
2023-01-13T12:41:20.219Z,9.32
2023-01-13T12:43:42.980Z,9.31
2023-01-13T12:45:46.382Z,9.30
2023-01-13T12:47:49.554Z,9.31
2023-01-13T12:50:11.910Z,9.33
2023-01-13T12:52:18.264Z,9.36
2023-01-13T12:54:30.118Z,9.40
2023-01-13T12:56:40.169Z,9.43
2023-01-13T12:58:42.925Z,9.47
2023-01-13T13:00:45.800Z,9.49
2023-01-13T13:03:12.380Z,9.50
2023-01-13T13:05:15.587Z,9.51
2023-01-13T13:07:39.333Z,9.51
2023-01-13T13:09:51.572Z,9.48
2023-01-13T13:12:03.305Z,9.46
2023-01-13T13:14:11.652Z,9.44
2023-01-13T13:16:26.686Z,9.41
2023-01-13T13:18:30.320Z,9.40
2023-01-13T13:20:54.766Z,9.42
2023-01-13T13:22:57.775Z,9.43
2023-01-13T13:25:04.522Z,9.43
2023-01-13T13:27:32.102Z,9.43
2023-01-13T13:29:59.158Z,9.41
2023-01-13T13:32:11.419Z,9.40
2023-01-13T13:34:35.117Z,9.39
2023-01-13T13:36:53.943Z,9.38
2023-01-13T13:39:37.191Z,9.37
2023-01-13T13:42:05.169Z,9.36
2023-01-13T13:44:44.871Z,9.35
2023-01-13T13:46:49.506Z,9.34
2023-01-13T13:48:54.618Z,9.36
2023-01-13T13:51:02.433Z,9.37
2023-01-13T13:53:08.624Z,9.40
2023-01-13T13:55:19.028Z,9.43
2023-01-13T13:57:29.851Z,9.45
2023-01-13T13:59:33.812Z,9.48
2023-01-13T14:01:40.537Z,9.51
2023-01-13T14:03:43.369Z,9.52
2023-01-13T14:06:04.558Z,9.53
2023-01-13T14:08:16.555Z,9.55
2023-01-13T14:10:25.860Z,9.55
2023-01-13T14:12:30.280Z,9.56
2023-01-13T14:14:32.999Z,9.56
2023-01-13T14:16:38.041Z,9.56
2023-01-13T14:18:48.726Z,9.58
2023-01-13T14:20:59.116Z,9.59
2023-01-13T14:23:01.779Z,9.59
2023-01-13T14:25:27.157Z,9.57
2023-01-13T14:27:30.690Z,9.53
2023-01-13T14:29:33.675Z,9.51
2023-01-13T14:31:38.503Z,9.50
2023-01-13T14:33:46.622Z,9.47
2023-01-13T14:36:13.227Z,9.44
2023-01-13T14:38:16.393Z,9.42
2023-01-13T14:40:44.823Z,9.42
2023-01-13T14:42:57.348Z,9.41
2023-01-13T14:45:00.877Z,9.40
2023-01-13T14:47:18.087Z,9.38
2023-01-13T14:49:40.533Z,9.37
2023-01-13T14:51:44.233Z,9.35
2023-01-13T14:53:50.209Z,9.32
2023-01-13T14:55:53.109Z,9.30
2023-01-13T14:58:24.394Z,9.28
2023-01-13T15:00:27.432Z,9.25
2023-01-13T15:02:30.417Z,9.19
2023-01-13T15:04:37.444Z,9.15
2023-01-13T15:06:45.653Z,9.10
2023-01-13T15:08:50.342Z,9.07
2023-01-13T15:10:59.949Z,9.05
2023-01-13T15:13:05.889Z,9.01
2023-01-13T15:15:23.386Z,8.99
2023-01-13T15:17:26.892Z,8.97
2023-01-13T15:19:41.479Z,8.95
2023-01-13T15:21:44.155Z,8.89
2023-01-13T15:23:47.428Z,8.80
2023-01-13T15:25:50.214Z,8.73
2023-01-13T15:27:53.445Z,8.68
2023-01-13T15:29:56.263Z,8.66
2023-01-13T15:31:58.881Z,8.64
2023-01-13T15:34:01.964Z,8.64
2023-01-13T15:36:11.526Z,8.64
2023-01-13T15:38:17.432Z,8.63
2023-01-13T15:40:32.153Z,8.62
2023-01-13T15:42:53.617Z,8.61
2023-01-13T15:45:15.029Z,8.61
2023-01-13T15:47:17.645Z,8.59
2023-01-13T15:49:27.960Z,8.56
2023-01-13T15:51:30.539Z,8.54
2023-01-13T15:53:36.973Z,8.52
2023-01-13T15:55:43.752Z,8.50
2023-01-13T15:57:50.088Z,8.47
2023-01-13T15:59:55.917Z,8.47
2023-01-13T16:01:58.644Z,8.42
2023-01-13T16:04:01.420Z,8.39
2023-01-13T16:06:11.963Z,8.35
2023-01-13T16:08:18.376Z,8.22
2023-01-13T16:10:26.702Z,8.13
2023-01-13T16:12:30.116Z,8.08
2023-01-13T16:14:33.024Z,8.07
2023-01-13T16:16:36.041Z,8.08
2023-01-13T16:18:38.935Z,8.07
2023-01-13T16:20:42.727Z,8.05
2023-01-13T16:22:45.693Z,8.04
2023-01-13T16:24:48.576Z,8.02
2023-01-13T16:26:51.326Z,8.00
2023-01-13T16:28:55.578Z,8.00
2023-01-13T16:30:58.346Z,7.99
2023-01-13T16:33:01.109Z,7.97
2023-01-13T16:35:03.929Z,7.96
2023-01-13T16:37:22.635Z,7.96
2023-01-13T16:39:26.373Z,7.97
2023-01-13T16:41:28.983Z,7.98
2023-01-13T16:43:32.276Z,7.96
2023-01-13T16:45:35.236Z,7.96
2023-01-13T16:47:39.195Z,7.97
2023-01-13T16:49:42.407Z,8.00
2023-01-13T16:51:45.407Z,8.03
2023-01-13T16:53:48.588Z,8.07
2023-01-13T16:55:51.204Z,8.12
2023-01-13T16:57:54.925Z,8.15
2023-01-13T16:59:57.684Z,8.19
2023-01-13T17:02:02.116Z,8.22
2023-01-13T17:04:06.095Z,8.23
2023-01-13T17:06:11.902Z,8.23
2023-01-13T17:08:17.892Z,8.21
2023-01-13T17:10:23.525Z,8.18
2023-01-13T17:12:26.111Z,8.15
2023-01-13T17:14:28.782Z,8.17
2023-01-13T17:16:31.671Z,8.18
2023-01-13T17:18:34.345Z,8.16
2023-01-13T17:20:37.400Z,8.16
2023-01-13T17:22:42.350Z,8.15
2023-01-13T17:24:46.109Z,8.19
2023-01-13T17:26:51.400Z,8.20
2023-01-13T17:28:54.077Z,8.23
2023-01-13T17:30:58.728Z,8.25
2023-01-13T17:33:01.688Z,8.25
2023-01-13T17:35:06.031Z,8.26
2023-01-13T17:37:10.151Z,8.26
2023-01-13T17:39:17.142Z,8.26
2023-01-13T17:41:19.872Z,8.27
2023-01-13T17:43:22.506Z,8.29
2023-01-13T17:45:27.994Z,8.25
2023-01-13T17:47:30.700Z,8.24
2023-01-13T17:49:33.815Z,8.25
2023-01-13T17:51:36.482Z,8.26
2023-01-13T17:53:44.225Z,8.25
2023-01-13T17:55:54.927Z,8.24
2023-01-13T17:57:57.995Z,8.26
2023-01-13T18:00:01.161Z,8.27
2023-01-13T18:02:04.961Z,8.31
2023-01-13T18:04:15.123Z,8.34
2023-01-13T18:06:23.287Z,8.35
2023-01-13T18:08:26.030Z,8.35
2023-01-13T18:10:28.644Z,8.35
2023-01-13T18:12:31.660Z,8.33
2023-01-13T18:14:35.126Z,8.35
2023-01-13T18:16:38.980Z,8.38
2023-01-13T18:18:44.259Z,8.35
2023-01-13T18:21:06.103Z,8.33
2023-01-13T18:23:36.383Z,8.31
2023-01-13T18:26:00.835Z,8.27
2023-01-13T18:28:04.985Z,8.23
2023-01-13T18:30:08.542Z,8.24
2023-01-13T18:32:12.260Z,8.27
2023-01-13T18:34:15.668Z,8.28
2023-01-13T18:36:18.601Z,8.29
2023-01-13T18:38:22.546Z,8.31
2023-01-13T18:40:27.142Z,8.29
2023-01-13T18:42:48.426Z,8.28
2023-01-13T18:44:52.532Z,8.27
2023-01-13T18:46:55.629Z,8.24
2023-01-13T18:48:59.026Z,8.21
2023-01-13T18:51:01.726Z,8.19
2023-01-13T18:53:05.188Z,8.18
2023-01-13T18:55:08.524Z,8.16
2023-01-13T18:57:11.529Z,8.12
2023-01-13T18:59:16.401Z,8.09
2023-01-13T19:01:25.797Z,8.07
2023-01-13T19:03:30.512Z,8.09
2023-01-13T19:05:36.175Z,8.11
2023-01-13T19:07:39.647Z,8.12
2023-01-13T19:09:42.382Z,8.13
2023-01-13T19:11:48.287Z,8.13
2023-01-13T19:13:53.666Z,8.13
2023-01-13T19:15:56.748Z,8.12
2023-01-13T19:18:00.355Z,8.10
2023-01-13T19:20:05.077Z,8.08
2023-01-13T19:22:11.766Z,8.05
2023-01-13T19:24:14.987Z,8.01
2023-01-13T19:26:19.829Z,7.99
2023-01-13T19:28:24.163Z,7.97
2023-01-13T19:30:27.390Z,7.95
2023-01-13T19:32:32.520Z,7.93
2023-01-13T19:34:35.906Z,7.93
2023-01-13T19:36:38.770Z,7.92
2023-01-13T19:38:42.705Z,7.91
2023-01-13T19:40:53.069Z,7.91
2023-01-13T19:43:17.835Z,7.90
2023-01-13T19:45:26.534Z,7.90
2023-01-13T19:47:29.365Z,7.89
2023-01-13T19:49:33.429Z,7.88
2023-01-13T19:51:36.023Z,7.88
2023-01-13T19:53:39.599Z,7.85
2023-01-13T19:55:47.858Z,7.82
2023-01-13T19:57:51.052Z,7.82
2023-01-13T19:59:55.425Z,7.82
2023-01-13T20:02:04.546Z,7.82
2023-01-13T20:04:14.297Z,7.82
2023-01-13T20:06:16.805Z,7.81
2023-01-13T20:08:22.468Z,7.82
2023-01-13T20:10:25.448Z,7.80
2023-01-13T20:12:29.319Z,7.78
2023-01-13T20:14:33.068Z,7.77
2023-01-13T20:16:35.718Z,7.76
2023-01-13T20:18:38.362Z,7.76
2023-01-13T20:20:41.313Z,7.74
2023-01-13T20:22:44.283Z,7.71
2023-01-13T20:24:48.564Z,7.68
2023-01-13T20:26:53.965Z,7.66
2023-01-13T20:28:56.702Z,7.67
2023-01-13T20:31:00.089Z,7.69
2023-01-13T20:33:04.248Z,7.72
2023-01-13T20:35:07.678Z,7.74
2023-01-13T20:37:13.383Z,7.74
2023-01-13T20:39:22.495Z,7.76
2023-01-13T20:41:44.832Z,7.79
2023-01-13T20:43:49.840Z,7.83
2023-01-13T20:45:54.124Z,7.85
2023-01-13T20:47:57.029Z,7.87
2023-01-13T20:49:59.919Z,7.88
2023-01-13T20:52:09.710Z,7.86
2023-01-13T20:54:12.915Z,7.85
2023-01-13T20:56:16.704Z,7.85
2023-01-13T20:58:19.321Z,7.83
2023-01-13T21:00:23.404Z,7.83
2023-01-13T21:02:26.542Z,7.83
2023-01-13T21:04:30.435Z,7.83
2023-01-13T21:06:34.300Z,7.83
2023-01-13T21:08:37.198Z,7.86
2023-01-13T21:10:39.972Z,7.89
2023-01-13T21:13:01.266Z,7.91
2023-01-13T21:15:22.949Z,7.94
2023-01-13T21:17:44.551Z,7.96
2023-01-13T21:19:47.312Z,7.98
2023-01-13T21:21:49.931Z,7.98
2023-01-13T21:23:53.093Z,7.98
2023-01-13T21:25:56.672Z,7.99
2023-01-13T21:28:05.594Z,7.98
2023-01-13T21:30:08.997Z,7.99
2023-01-13T21:32:12.224Z,7.98
2023-01-13T21:34:14.952Z,7.96
2023-01-13T21:36:18.819Z,7.95
2023-01-13T21:38:21.527Z,7.94
2023-01-13T21:40:24.421Z,7.92
2023-01-13T21:42:45.772Z,7.91
2023-01-13T21:45:07.646Z,7.89
2023-01-13T21:47:33.990Z,7.92
2023-01-13T21:49:45.033Z,7.94
2023-01-13T21:51:47.778Z,7.97
2023-01-13T21:53:50.491Z,7.98
2023-01-13T21:55:53.275Z,8.02
2023-01-13T21:58:08.958Z,8.04
2023-01-13T22:00:12.459Z,8.04
2023-01-13T22:02:28.956Z,8.07
2023-01-13T22:04:32.614Z,8.06
2023-01-13T22:06:35.234Z,8.07
2023-01-13T22:08:38.029Z,8.08
2023-01-13T22:11:00.043Z,8.07
2023-01-13T22:13:24.004Z,8.05
2023-01-13T22:15:29.388Z,8.02
2023-01-13T22:17:32.511Z,8.00
2023-01-13T22:19:39.176Z,7.99
2023-01-13T22:21:41.808Z,7.99
2023-01-13T22:23:45.439Z,7.99
2023-01-13T22:25:48.052Z,7.97
2023-01-13T22:27:52.378Z,7.97
2023-01-13T22:29:55.602Z,7.98
2023-01-13T22:31:58.235Z,8.00
2023-01-13T22:34:01.063Z,8.03
2023-01-13T22:36:04.857Z,8.07
2023-01-13T22:38:12.123Z,8.09
2023-01-13T22:40:15.181Z,8.10
2023-01-13T22:42:18.652Z,8.10
2023-01-13T22:44:22.361Z,8.10
2023-01-13T22:46:25.227Z,8.08
2023-01-13T22:48:28.480Z,8.09
2023-01-13T22:50:31.102Z,8.08
2023-01-13T22:52:34.510Z,8.07
2023-01-13T22:54:37.116Z,8.06
2023-01-13T22:56:40.047Z,8.04
2023-01-13T22:58:43.440Z,8.01
2023-01-13T23:00:46.857Z,8.00
2023-01-13T23:02:49.404Z,7.96
2023-01-13T23:04:52.167Z,7.91
2023-01-13T23:06:54.986Z,7.88
2023-01-13T23:08:57.647Z,7.87
2023-01-13T23:11:02.445Z,7.89
2023-01-13T23:13:05.390Z,7.90
2023-01-13T23:15:08.556Z,7.90
2023-01-13T23:17:11.372Z,7.89
2023-01-13T23:19:14.486Z,7.90
2023-01-13T23:21:20.199Z,7.89
2023-01-13T23:23:25.788Z,7.89
2023-01-13T23:25:29.136Z,7.88
2023-01-13T23:27:31.988Z,7.88
2023-01-13T23:29:34.637Z,7.87
2023-01-13T23:31:37.930Z,7.87
2023-01-13T23:33:44.186Z,7.86
2023-01-13T23:35:57.043Z,7.86
2023-01-13T23:37:59.734Z,7.84
2023-01-13T23:40:02.761Z,7.84
2023-01-13T23:42:05.389Z,7.81
2023-01-13T23:44:09.937Z,7.77
2023-01-13T23:46:14.110Z,7.74
2023-01-13T23:48:18.687Z,7.75
2023-01-13T23:50:21.372Z,7.76
2023-01-13T23:52:24.156Z,7.80
2023-01-13T23:54:26.897Z,7.86
2023-01-13T23:56:31.735Z,7.90
2023-01-13T23:58:35.525Z,7.91
